sensor_id;sensor_type;location;lat;lon;timestamp;temperature;humidity
19999;DHT22;10160;50.926;4.374;2023-05-02T00:00:15;12.50;99.90
19999;DHT22;10160;50.926;4.374;2023-05-02T00:02:41;12.40;99.90
19999;DHT22;10160;50.926;4.374;2023-05-02T00:05:07;12.40;99.90
19999;DHT22;10160;50.926;4.374;2023-05-02T00:07:33;12.40;99.90
19999;DHT22;10160;50.926;4.374;2023-05-02T00:09:58;12.30;99.90
19999;DHT22;10160;50.926;4.374;2023-05-02T00:12:27;12.10;99.90
19999;DHT22;10160;50.926;4.374;2023-05-02T00:14:52;12.20;99.90
19999;DHT22;10160;50.926;4.374;2023-05-02T00:17:19;12.20;99.90
19999;DHT22;10160;50.926;4.374;2023-05-02T00:19:45;12.30;99.90
19999;DHT22;10160;50.926;4.374;2023-05-02T00:22:11;12.40;99.90
19999;DHT22;10160;50.926;4.374;2023-05-02T00:24:37;12.30;99.90
19999;DHT22;10160;50.926;4.374;2023-05-02T00:27:02;12.50;99.90
19999;DHT22;10160;50.926;4.374;2023-05-02T00:29:29;12.80;99.90
19999;DHT22;10160;50.926;4.374;2023-05-02T00:31:55;12.70;99.90
19999;DHT22;10160;50.926;4.374;2023-05-02T00:34:21;12.70;99.90
19999;DHT22;10160;50.926;4.374;2023-05-02T00:36:47;12.70;99.90
19999;DHT22;10160;50.926;4.374;2023-05-02T00:39:13;12.90;99.90
19999;DHT22;10160;50.926;4.374;2023-05-02T00:41:38;12.90;99.90
19999;DHT22;10160;50.926;4.374;2023-05-02T00:44:04;12.80;99.90
19999;DHT22;10160;50.926;4.374;2023-05-02T00:46:30;13.00;99.90
19999;DHT22;10160;50.926;4.374;2023-05-02T00:48:56;12.80;99.90
19999;DHT22;10160;50.926;4.374;2023-05-02T00:51:21;13.00;99.90
19999;DHT22;10160;50.926;4.374;2023-05-02T00:53:48;12.90;99.90
19999;DHT22;10160;50.926;4.374;2023-05-02T00:56:13;13.00;99.90
19999;DHT22;10160;50.926;4.374;2023-05-02T00:58:40;12.90;99.90
19999;DHT22;10160;50.926;4.374;2023-05-02T01:01:22;13.10;99.90
19999;DHT22;10160;50.926;4.374;2023-05-02T01:04:20;13.00;99.90
19999;DHT22;10160;50.926;4.374;2023-05-02T01:10:22;13.20;99.90
19999;DHT22;10160;50.926;4.374;2023-05-02T01:15:22;13.00;99.90
19999;DHT22;10160;50.926;4.374;2023-05-02T01:17:49;13.20;99.90
19999;DHT22;10160;50.926;4.374;2023-05-02T01:20:19;13.00;99.90
19999;DHT22;10160;50.926;4.374;2023-05-02T01:22:47;12.90;99.90
19999;DHT22;10160;50.926;4.374;2023-05-02T01:30:31;12.70;99.90
19999;DHT22;10160;50.926;4.374;2023-05-02T01:32:58;12.90;99.90
19999;DHT22;10160;50.926;4.374;2023-05-02T01:35:25;12.80;99.90
19999;DHT22;10160;50.926;4.374;2023-05-02T01:37:52;12.80;99.90
19999;DHT22;10160;50.926;4.374;2023-05-02T01:40:20;12.80;99.90
19999;DHT22;10160;50.926;4.374;2023-05-02T01:42:49;12.80;99.90
19999;DHT22;10160;50.926;4.374;2023-05-02T01:45:16;12.60;99.90
19999;DHT22;10160;50.926;4.374;2023-05-02T01:47:44;12.60;99.90
19999;DHT22;10160;50.926;4.374;2023-05-02T01:50:19;12.50;99.90
19999;DHT22;10160;50.926;4.374;2023-05-02T01:52:50;12.60;99.90
19999;DHT22;10160;50.926;4.374;2023-05-02T01:55:17;12.70;99.90
19999;DHT22;10160;50.926;4.374;2023-05-02T01:57:45;12.40;99.90
19999;DHT22;10160;50.926;4.374;2023-05-02T02:00:11;12.60;99.90
19999;DHT22;10160;50.926;4.374;2023-05-02T02:02:39;12.70;99.90
19999;DHT22;10160;50.926;4.374;2023-05-02T02:05:06;12.70;99.90
19999;DHT22;10160;50.926;4.374;2023-05-02T02:07:33;12.50;99.90
19999;DHT22;10160;50.926;4.374;2023-05-02T02:09:59;12.60;99.90
19999;DHT22;10160;50.926;4.374;2023-05-02T02:12:28;12.70;99.90
19999;DHT22;10160;50.926;4.374;2023-05-02T02:15:02;12.60;99.90
19999;DHT22;10160;50.926;4.374;2023-05-02T02:17:41;12.50;99.90
19999;DHT22;10160;50.926;4.374;2023-05-02T02:20:09;12.50;99.90
19999;DHT22;10160;50.926;4.374;2023-05-02T02:22:40;12.50;99.90
19999;DHT22;10160;50.926;4.374;2023-05-02T02:25:10;12.50;99.90
19999;DHT22;10160;50.926;4.374;2023-05-02T02:27:40;12.40;99.90
19999;DHT22;10160;50.926;4.374;2023-05-02T02:30:07;12.40;99.90
19999;DHT22;10160;50.926;4.374;2023-05-02T02:32:33;12.40;99.90
19999;DHT22;10160;50.926;4.374;2023-05-02T02:35:00;12.50;99.90
19999;DHT22;10160;50.926;4.374;2023-05-02T02:37:34;12.50;99.90
19999;DHT22;10160;50.926;4.374;2023-05-02T02:40:07;12.60;99.90
19999;DHT22;10160;50.926;4.374;2023-05-02T02:43:02;12.50;99.90
19999;DHT22;10160;50.926;4.374;2023-05-02T02:45:43;12.40;99.90
19999;DHT22;10160;50.926;4.374;2023-05-02T02:48:24;12.40;99.90
19999;DHT22;10160;50.926;4.374;2023-05-02T02:53:32;12.50;99.90
19999;DHT22;10160;50.926;4.374;2023-05-02T02:56:09;12.50;99.90
19999;DHT22;10160;50.926;4.374;2023-05-02T03:01:08;12.30;99.90
19999;DHT22;10160;50.926;4.374;2023-05-02T03:03:38;12.40;99.90
19999;DHT22;10160;50.926;4.374;2023-05-02T03:06:05;12.30;99.90
19999;DHT22;10160;50.926;4.374;2023-05-02T03:08:41;12.40;99.90
19999;DHT22;10160;50.926;4.374;2023-05-02T03:11:07;12.40;99.90
19999;DHT22;10160;50.926;4.374;2023-05-02T03:13:34;12.50;99.90
19999;DHT22;10160;50.926;4.374;2023-05-02T03:16:32;12.50;99.90
19999;DHT22;10160;50.926;4.374;2023-05-02T03:18:58;12.40;99.90
19999;DHT22;10160;50.926;4.374;2023-05-02T03:21:24;12.10;99.90
19999;DHT22;10160;50.926;4.374;2023-05-02T03:23:49;11.90;99.90
19999;DHT22;10160;50.926;4.374;2023-05-02T03:26:16;12.00;99.90
19999;DHT22;10160;50.926;4.374;2023-05-02T03:28:42;11.80;99.90
19999;DHT22;10160;50.926;4.374;2023-05-02T03:31:11;11.90;99.90
19999;DHT22;10160;50.926;4.374;2023-05-02T03:33:37;12.00;99.90
19999;DHT22;10160;50.926;4.374;2023-05-02T03:36:03;12.00;99.90
19999;DHT22;10160;50.926;4.374;2023-05-02T03:38:29;11.80;99.90
19999;DHT22;10160;50.926;4.374;2023-05-02T03:40:58;11.60;99.90
19999;DHT22;10160;50.926;4.374;2023-05-02T03:43:24;11.50;99.90
19999;DHT22;10160;50.926;4.374;2023-05-02T03:45:49;11.60;99.90
19999;DHT22;10160;50.926;4.374;2023-05-02T03:48:15;11.50;99.90
19999;DHT22;10160;50.926;4.374;2023-05-02T03:50:41;11.50;99.90
19999;DHT22;10160;50.926;4.374;2023-05-02T03:53:08;11.40;99.90
19999;DHT22;10160;50.926;4.374;2023-05-02T03:55:43;11.40;99.90
19999;DHT22;10160;50.926;4.374;2023-05-02T03:58:10;11.60;99.90
19999;DHT22;10160;50.926;4.374;2023-05-02T04:00:35;11.50;99.90
19999;DHT22;10160;50.926;4.374;2023-05-02T04:03:02;11.50;99.90
19999;DHT22;10160;50.926;4.374;2023-05-02T04:05:28;11.60;99.90
19999;DHT22;10160;50.926;4.374;2023-05-02T04:07:57;11.80;99.90
19999;DHT22;10160;50.926;4.374;2023-05-02T04:10:23;11.50;99.90
19999;DHT22;10160;50.926;4.374;2023-05-02T04:12:48;11.50;99.90
19999;DHT22;10160;50.926;4.374;2023-05-02T04:15:14;11.60;99.90
19999;DHT22;10160;50.926;4.374;2023-05-02T04:17:40;11.60;99.90
19999;DHT22;10160;50.926;4.374;2023-05-02T04:20:06;11.80;99.90
19999;DHT22;10160;50.926;4.374;2023-05-02T04:22:32;11.80;99.90
19999;DHT22;10160;50.926;4.374;2023-05-02T04:24:58;11.90;99.90
19999;DHT22;10160;50.926;4.374;2023-05-02T04:27:24;12.00;99.90
19999;DHT22;10160;50.926;4.374;2023-05-02T04:29:52;12.00;99.90
19999;DHT22;10160;50.926;4.374;2023-05-02T04:32:18;11.90;99.90
19999;DHT22;10160;50.926;4.374;2023-05-02T04:34:44;11.70;99.90
19999;DHT22;10160;50.926;4.374;2023-05-02T04:37:10;11.90;99.90
19999;DHT22;10160;50.926;4.374;2023-05-02T04:39:35;12.00;99.90
19999;DHT22;10160;50.926;4.374;2023-05-02T04:42:02;11.90;99.90
19999;DHT22;10160;50.926;4.374;2023-05-02T04:44:28;11.90;99.90
19999;DHT22;10160;50.926;4.374;2023-05-02T04:46:53;12.00;99.90
19999;DHT22;10160;50.926;4.374;2023-05-02T04:49:19;12.10;99.90
19999;DHT22;10160;50.926;4.374;2023-05-02T04:51:45;12.00;99.90
19999;DHT22;10160;50.926;4.374;2023-05-02T04:54:13;12.10;99.90
19999;DHT22;10160;50.926;4.374;2023-05-02T04:56:40;11.90;99.90
19999;DHT22;10160;50.926;4.374;2023-05-02T04:59:08;11.80;99.90
19999;DHT22;10160;50.926;4.374;2023-05-02T05:01:34;11.90;99.90
19999;DHT22;10160;50.926;4.374;2023-05-02T05:03:59;12.00;99.90
19999;DHT22;10160;50.926;4.374;2023-05-02T05:06:26;12.10;99.90
19999;DHT22;10160;50.926;4.374;2023-05-02T05:08:52;12.00;99.90
19999;DHT22;10160;50.926;4.374;2023-05-02T05:11:18;12.10;99.90
19999;DHT22;10160;50.926;4.374;2023-05-02T05:13:43;11.80;99.90
19999;DHT22;10160;50.926;4.374;2023-05-02T05:16:09;11.90;99.90
19999;DHT22;10160;50.926;4.374;2023-05-02T05:18:35;11.80;99.90
19999;DHT22;10160;50.926;4.374;2023-05-02T05:21:11;12.00;99.90
19999;DHT22;10160;50.926;4.374;2023-05-02T05:23:37;12.00;99.90
19999;DHT22;10160;50.926;4.374;2023-05-02T05:26:14;12.20;99.90
19999;DHT22;10160;50.926;4.374;2023-05-02T05:28:40;12.10;99.90
19999;DHT22;10160;50.926;4.374;2023-05-02T05:31:07;11.90;99.90
19999;DHT22;10160;50.926;4.374;2023-05-02T05:33:34;12.00;99.90
19999;DHT22;10160;50.926;4.374;2023-05-02T05:36:07;12.10;99.90
19999;DHT22;10160;50.926;4.374;2023-05-02T05:38:33;12.20;99.90
19999;DHT22;10160;50.926;4.374;2023-05-02T05:40:59;12.30;99.90
19999;DHT22;10160;50.926;4.374;2023-05-02T05:43:26;12.20;99.90
19999;DHT22;10160;50.926;4.374;2023-05-02T05:45:52;12.20;99.90
19999;DHT22;10160;50.926;4.374;2023-05-02T05:48:18;12.40;99.90
19999;DHT22;10160;50.926;4.374;2023-05-02T05:50:44;12.70;99.90
19999;DHT22;10160;50.926;4.374;2023-05-02T05:53:09;12.50;99.90
19999;DHT22;10160;50.926;4.374;2023-05-02T05:55:35;12.50;99.90
19999;DHT22;10160;50.926;4.374;2023-05-02T05:58:03;12.60;99.90
19999;DHT22;10160;50.926;4.374;2023-05-02T06:00:28;12.80;99.90
19999;DHT22;10160;50.926;4.374;2023-05-02T06:02:54;12.70;99.90
19999;DHT22;10160;50.926;4.374;2023-05-02T06:05:20;12.70;99.90
19999;DHT22;10160;50.926;4.374;2023-05-02T06:07:46;12.70;99.90
19999;DHT22;10160;50.926;4.374;2023-05-02T06:10:11;12.90;99.90
19999;DHT22;10160;50.926;4.374;2023-05-02T06:12:37;12.80;99.90
19999;DHT22;10160;50.926;4.374;2023-05-02T06:15:03;12.90;99.90
19999;DHT22;10160;50.926;4.374;2023-05-02T06:17:29;12.80;99.90
19999;DHT22;10160;50.926;4.374;2023-05-02T06:19:55;12.80;99.90
19999;DHT22;10160;50.926;4.374;2023-05-02T06:22:20;12.90;99.90
19999;DHT22;10160;50.926;4.374;2023-05-02T06:24:46;13.10;99.90
19999;DHT22;10160;50.926;4.374;2023-05-02T06:27:12;13.20;99.90
19999;DHT22;10160;50.926;4.374;2023-05-02T06:29:37;13.30;99.90
19999;DHT22;10160;50.926;4.374;2023-05-02T06:32:03;13.20;99.90
19999;DHT22;10160;50.926;4.374;2023-05-02T06:34:32;13.00;99.90
19999;DHT22;10160;50.926;4.374;2023-05-02T06:36:58;13.10;99.90
19999;DHT22;10160;50.926;4.374;2023-05-02T06:39:24;13.10;99.90
19999;DHT22;10160;50.926;4.374;2023-05-02T06:41:50;13.20;99.90
19999;DHT22;10160;50.926;4.374;2023-05-02T06:44:15;13.30;99.90
19999;DHT22;10160;50.926;4.374;2023-05-02T06:46:42;13.50;99.90
19999;DHT22;10160;50.926;4.374;2023-05-02T06:49:07;13.60;99.90
19999;DHT22;10160;50.926;4.374;2023-05-02T06:51:33;13.80;99.90
19999;DHT22;10160;50.926;4.374;2023-05-02T06:53:59;14.00;99.90
19999;DHT22;10160;50.926;4.374;2023-05-02T06:56:25;14.10;99.90
19999;DHT22;10160;50.926;4.374;2023-05-02T06:58:51;13.80;99.90
19999;DHT22;10160;50.926;4.374;2023-05-02T07:01:17;14.00;99.90
19999;DHT22;10160;50.926;4.374;2023-05-02T07:03:43;14.10;99.90
19999;DHT22;10160;50.926;4.374;2023-05-02T07:06:08;14.10;99.90
19999;DHT22;10160;50.926;4.374;2023-05-02T07:08:34;14.10;99.90
19999;DHT22;10160;50.926;4.374;2023-05-02T07:11:01;14.20;99.90
19999;DHT22;10160;50.926;4.374;2023-05-02T07:13:27;14.30;99.90
19999;DHT22;10160;50.926;4.374;2023-05-02T07:15:53;14.40;99.90
19999;DHT22;10160;50.926;4.374;2023-05-02T07:18:18;14.50;99.90
19999;DHT22;10160;50.926;4.374;2023-05-02T07:20:44;14.80;99.90
19999;DHT22;10160;50.926;4.374;2023-05-02T07:23:10;15.00;99.90
19999;DHT22;10160;50.926;4.374;2023-05-02T07:25:35;15.20;99.90
19999;DHT22;10160;50.926;4.374;2023-05-02T07:28:02;15.40;99.90
19999;DHT22;10160;50.926;4.374;2023-05-02T07:30:27;15.50;99.90
19999;DHT22;10160;50.926;4.374;2023-05-02T07:32:53;15.60;99.90
19999;DHT22;10160;50.926;4.374;2023-05-02T07:35:19;15.60;99.90
19999;DHT22;10160;50.926;4.374;2023-05-02T07:37:44;15.60;99.90
19999;DHT22;10160;50.926;4.374;2023-05-02T07:40:10;15.70;99.90
19999;DHT22;10160;50.926;4.374;2023-05-02T07:42:36;15.90;99.90
19999;DHT22;10160;50.926;4.374;2023-05-02T07:45:02;15.60;99.90
19999;DHT22;10160;50.926;4.374;2023-05-02T07:47:29;15.60;99.90
19999;DHT22;10160;50.926;4.374;2023-05-02T07:49:55;15.80;99.90
19999;DHT22;10160;50.926;4.374;2023-05-02T07:52:21;15.80;99.90
19999;DHT22;10160;50.926;4.374;2023-05-02T07:54:50;15.80;99.90
19999;DHT22;10160;50.926;4.374;2023-05-02T07:57:16;15.50;99.90
19999;DHT22;10160;50.926;4.374;2023-05-02T07:59:41;15.70;99.90
19999;DHT22;10160;50.926;4.374;2023-05-02T08:02:07;15.60;99.90
19999;DHT22;10160;50.926;4.374;2023-05-02T08:04:33;15.60;99.90
19999;DHT22;10160;50.926;4.374;2023-05-02T08:06:59;15.90;99.90
19999;DHT22;10160;50.926;4.374;2023-05-02T08:09:25;15.70;99.90
19999;DHT22;10160;50.926;4.374;2023-05-02T08:11:51;15.40;99.90
19999;DHT22;10160;50.926;4.374;2023-05-02T08:14:17;15.60;99.90
19999;DHT22;10160;50.926;4.374;2023-05-02T08:16:42;15.80;99.90
19999;DHT22;10160;50.926;4.374;2023-05-02T08:19:08;15.70;99.90
19999;DHT22;10160;50.926;4.374;2023-05-02T08:21:34;15.90;99.90
19999;DHT22;10160;50.926;4.374;2023-05-02T08:24:00;15.90;99.90
19999;DHT22;10160;50.926;4.374;2023-05-02T08:26:26;16.10;99.90
19999;DHT22;10160;50.926;4.374;2023-05-02T08:28:55;16.20;99.90
19999;DHT22;10160;50.926;4.374;2023-05-02T08:31:21;16.30;99.90
19999;DHT22;10160;50.926;4.374;2023-05-02T08:33:46;16.20;99.90
19999;DHT22;10160;50.926;4.374;2023-05-02T08:36:13;16.10;99.90
19999;DHT22;10160;50.926;4.374;2023-05-02T08:38:41;16.20;99.90
19999;DHT22;10160;50.926;4.374;2023-05-02T08:41:17;16.50;99.90
19999;DHT22;10160;50.926;4.374;2023-05-02T08:43:47;16.60;99.90
19999;DHT22;10160;50.926;4.374;2023-05-02T08:46:14;16.60;99.90
19999;DHT22;10160;50.926;4.374;2023-05-02T08:48:43;16.80;99.90
19999;DHT22;10160;50.926;4.374;2023-05-02T08:51:13;16.70;99.90
19999;DHT22;10160;50.926;4.374;2023-05-02T08:53:40;16.80;99.90
19999;DHT22;10160;50.926;4.374;2023-05-02T08:56:07;16.50;99.90
19999;DHT22;10160;50.926;4.374;2023-05-02T08:58:34;16.60;99.90
19999;DHT22;10160;50.926;4.374;2023-05-02T09:01:01;16.50;99.90
19999;DHT22;10160;50.926;4.374;2023-05-02T09:03:35;16.80;99.90
19999;DHT22;10160;50.926;4.374;2023-05-02T09:06:12;17.00;99.90
19999;DHT22;10160;50.926;4.374;2023-05-02T09:08:39;17.20;99.90
19999;DHT22;10160;50.926;4.374;2023-05-02T09:11:07;16.70;99.90
19999;DHT22;10160;50.926;4.374;2023-05-02T09:16:07;16.10;99.90
19999;DHT22;10160;50.926;4.374;2023-05-02T09:18:35;15.90;99.90
19999;DHT22;10160;50.926;4.374;2023-05-02T09:21:04;16.40;99.90
19999;DHT22;10160;50.926;4.374;2023-05-02T09:23:38;16.50;99.90
19999;DHT22;10160;50.926;4.374;2023-05-02T09:26:30;16.70;99.90
19999;DHT22;10160;50.926;4.374;2023-05-02T09:28:58;17.00;99.90
19999;DHT22;10160;50.926;4.374;2023-05-02T09:31:25;17.00;99.90
19999;DHT22;10160;50.926;4.374;2023-05-02T09:33:52;16.70;99.90
19999;DHT22;10160;50.926;4.374;2023-05-02T09:36:20;16.50;99.90
19999;DHT22;10160;50.926;4.374;2023-05-02T09:38:49;16.40;99.90
19999;DHT22;10160;50.926;4.374;2023-05-02T09:41:15;16.40;99.90
19999;DHT22;10160;50.926;4.374;2023-05-02T09:43:55;16.10;99.90
19999;DHT22;10160;50.926;4.374;2023-05-02T09:46:22;16.00;99.90
19999;DHT22;10160;50.926;4.374;2023-05-02T09:48:55;16.20;99.90
19999;DHT22;10160;50.926;4.374;2023-05-02T09:51:23;15.90;99.90
19999;DHT22;10160;50.926;4.374;2023-05-02T09:53:50;16.10;99.90
19999;DHT22;10160;50.926;4.374;2023-05-02T09:56:17;16.30;99.90
19999;DHT22;10160;50.926;4.374;2023-05-02T09:58:42;16.60;99.90
19999;DHT22;10160;50.926;4.374;2023-05-02T10:01:14;16.50;99.90
19999;DHT22;10160;50.926;4.374;2023-05-02T10:03:41;16.50;99.90
19999;DHT22;10160;50.926;4.374;2023-05-02T10:06:08;16.60;99.90
19999;DHT22;10160;50.926;4.374;2023-05-02T10:08:34;16.60;99.90
19999;DHT22;10160;50.926;4.374;2023-05-02T10:11:03;15.80;99.90
19999;DHT22;10160;50.926;4.374;2023-05-02T10:13:32;16.40;99.90
19999;DHT22;10160;50.926;4.374;2023-05-02T10:16:11;16.40;99.90
19999;DHT22;10160;50.926;4.374;2023-05-02T10:18:45;16.70;99.90
19999;DHT22;10160;50.926;4.374;2023-05-02T10:21:15;16.80;99.90
19999;DHT22;10160;50.926;4.374;2023-05-02T10:23:43;17.10;99.90
19999;DHT22;10160;50.926;4.374;2023-05-02T10:26:14;17.40;99.90
19999;DHT22;10160;50.926;4.374;2023-05-02T10:28:41;17.80;99.90
19999;DHT22;10160;50.926;4.374;2023-05-02T10:31:09;17.50;99.90
19999;DHT22;10160;50.926;4.374;2023-05-02T10:33:35;17.70;99.90
19999;DHT22;10160;50.926;4.374;2023-05-02T10:36:02;18.10;99.90
19999;DHT22;10160;50.926;4.374;2023-05-02T10:38:28;18.30;99.90
19999;DHT22;10160;50.926;4.374;2023-05-02T10:41:04;18.50;99.90
19999;DHT22;10160;50.926;4.374;2023-05-02T10:43:33;18.80;99.90
19999;DHT22;10160;50.926;4.374;2023-05-02T10:45:59;19.00;99.90
19999;DHT22;10160;50.926;4.374;2023-05-02T10:48:28;19.30;99.90
19999;DHT22;10160;50.926;4.374;2023-05-02T10:50:58;19.30;99.90
19999;DHT22;10160;50.926;4.374;2023-05-02T10:56:15;19.20;99.90
19999;DHT22;10160;50.926;4.374;2023-05-02T10:58:45;18.40;99.90
19999;DHT22;10160;50.926;4.374;2023-05-02T11:04:06;18.70;99.90
19999;DHT22;10160;50.926;4.374;2023-05-02T11:06:36;19.00;99.90
19999;DHT22;10160;50.926;4.374;2023-05-02T11:11:48;19.70;99.90
19999;DHT22;10160;50.926;4.374;2023-05-02T11:24:45;20.00;99.90
19999;DHT22;10160;50.926;4.374;2023-05-02T11:30:00;20.50;99.90
19999;DHT22;10160;50.926;4.374;2023-05-02T11:35:26;20.50;99.90
19999;DHT22;10160;50.926;4.374;2023-05-02T11:37:58;20.10;99.90
19999;DHT22;10160;50.926;4.374;2023-05-02T11:40:25;19.90;99.90
19999;DHT22;10160;50.926;4.374;2023-05-02T11:42:51;19.90;99.90
19999;DHT22;10160;50.926;4.374;2023-05-02T11:45:18;19.60;99.90
19999;DHT22;10160;50.926;4.374;2023-05-02T11:47:47;19.70;99.90
19999;DHT22;10160;50.926;4.374;2023-05-02T11:50:13;19.20;99.90
19999;DHT22;10160;50.926;4.374;2023-05-02T11:52:41;19.00;99.90
19999;DHT22;10160;50.926;4.374;2023-05-02T11:55:11;19.70;99.90
19999;DHT22;10160;50.926;4.374;2023-05-02T11:57:38;20.30;99.90
19999;DHT22;10160;50.926;4.374;2023-05-02T12:00:05;20.30;99.90
19999;DHT22;10160;50.926;4.374;2023-05-02T12:02:40;20.50;99.90
19999;DHT22;10160;50.926;4.374;2023-05-02T12:05:07;20.60;99.90
19999;DHT22;10160;50.926;4.374;2023-05-02T12:07:38;20.80;99.90
19999;DHT22;10160;50.926;4.374;2023-05-02T12:10:05;20.70;99.90
19999;DHT22;10160;50.926;4.374;2023-05-02T12:12:31;20.90;99.90
19999;DHT22;10160;50.926;4.374;2023-05-02T12:14:57;21.30;99.90
19999;DHT22;10160;50.926;4.374;2023-05-02T12:17:22;21.30;99.90
19999;DHT22;10160;50.926;4.374;2023-05-02T12:19:49;21.40;99.90
19999;DHT22;10160;50.926;4.374;2023-05-02T12:22:15;21.60;99.90
19999;DHT22;10160;50.926;4.374;2023-05-02T12:24:42;21.80;99.90
19999;DHT22;10160;50.926;4.374;2023-05-02T12:27:15;21.70;99.90
19999;DHT22;10160;50.926;4.374;2023-05-02T12:29:42;21.70;99.90
19999;DHT22;10160;50.926;4.374;2023-05-02T12:32:08;21.60;99.90
19999;DHT22;10160;50.926;4.374;2023-05-02T12:34:35;21.60;99.90
19999;DHT22;10160;50.926;4.374;2023-05-02T12:37:01;21.50;99.90
19999;DHT22;10160;50.926;4.374;2023-05-02T12:39:38;21.60;99.90
19999;DHT22;10160;50.926;4.374;2023-05-02T12:42:14;21.70;99.90
19999;DHT22;10160;50.926;4.374;2023-05-02T12:44:42;21.80;99.90
19999;DHT22;10160;50.926;4.374;2023-05-02T12:47:10;21.20;99.90
19999;DHT22;10160;50.926;4.374;2023-05-02T12:52:15;21.60;99.90
19999;DHT22;10160;50.926;4.374;2023-05-02T12:54:41;21.50;99.90
19999;DHT22;10160;50.926;4.374;2023-05-02T12:57:07;21.70;99.90
19999;DHT22;10160;50.926;4.374;2023-05-02T12:59:33;21.80;99.90
19999;DHT22;10160;50.926;4.374;2023-05-02T13:01:59;21.40;99.90
19999;DHT22;10160;50.926;4.374;2023-05-02T13:04:37;21.40;99.90
19999;DHT22;10160;50.926;4.374;2023-05-02T13:07:05;21.60;99.90
19999;DHT22;10160;50.926;4.374;2023-05-02T13:09:30;21.00;99.90
19999;DHT22;10160;50.926;4.374;2023-05-02T13:11:56;20.80;99.90
19999;DHT22;10160;50.926;4.374;2023-05-02T13:14:23;21.10;99.90
19999;DHT22;10160;50.926;4.374;2023-05-02T13:16:49;21.10;99.90
19999;DHT22;10160;50.926;4.374;2023-05-02T13:19:19;21.40;99.90
19999;DHT22;10160;50.926;4.374;2023-05-02T13:21:46;21.40;99.90
19999;DHT22;10160;50.926;4.374;2023-05-02T13:24:11;21.60;99.90
19999;DHT22;10160;50.926;4.374;2023-05-02T13:26:37;21.40;99.90
19999;DHT22;10160;50.926;4.374;2023-05-02T13:29:03;21.00;99.90
19999;DHT22;10160;50.926;4.374;2023-05-02T13:31:29;21.00;99.90
19999;DHT22;10160;50.926;4.374;2023-05-02T13:33:54;20.50;99.90
19999;DHT22;10160;50.926;4.374;2023-05-02T13:36:20;20.30;99.90
19999;DHT22;10160;50.926;4.374;2023-05-02T13:38:46;20.60;99.90
19999;DHT22;10160;50.926;4.374;2023-05-02T13:41:11;21.00;99.90
19999;DHT22;10160;50.926;4.374;2023-05-02T13:43:37;21.00;99.90
19999;DHT22;10160;50.926;4.374;2023-05-02T13:46:05;21.20;99.90
19999;DHT22;10160;50.926;4.374;2023-05-02T13:48:30;20.60;99.90
19999;DHT22;10160;50.926;4.374;2023-05-02T13:50:56;20.80;99.90
19999;DHT22;10160;50.926;4.374;2023-05-02T13:53:21;20.20;99.90
19999;DHT22;10160;50.926;4.374;2023-05-02T13:55:47;20.50;99.90
19999;DHT22;10160;50.926;4.374;2023-05-02T13:58:13;20.50;99.90
19999;DHT22;10160;50.926;4.374;2023-05-02T14:00:38;20.70;99.90
19999;DHT22;10160;50.926;4.374;2023-05-02T14:03:04;20.40;99.90
19999;DHT22;10160;50.926;4.374;2023-05-02T14:05:30;20.50;99.90
19999;DHT22;10160;50.926;4.374;2023-05-02T14:07:55;20.70;99.90
19999;DHT22;10160;50.926;4.374;2023-05-02T14:10:21;20.20;99.90
19999;DHT22;10160;50.926;4.374;2023-05-02T14:12:47;20.60;99.90
19999;DHT22;10160;50.926;4.374;2023-05-02T14:15:13;20.90;99.90
19999;DHT22;10160;50.926;4.374;2023-05-02T14:17:39;20.00;99.90
19999;DHT22;10160;50.926;4.374;2023-05-02T14:20:05;20.20;99.90
19999;DHT22;10160;50.926;4.374;2023-05-02T14:22:31;20.40;99.90
19999;DHT22;10160;50.926;4.374;2023-05-02T14:24:57;20.50;99.90
19999;DHT22;10160;50.926;4.374;2023-05-02T14:27:23;20.60;99.90
19999;DHT22;10160;50.926;4.374;2023-05-02T14:29:50;21.00;99.90
19999;DHT22;10160;50.926;4.374;2023-05-02T14:32:15;20.70;99.90
19999;DHT22;10160;50.926;4.374;2023-05-02T14:34:41;20.10;99.90
19999;DHT22;10160;50.926;4.374;2023-05-02T14:37:07;20.40;99.90
19999;DHT22;10160;50.926;4.374;2023-05-02T14:39:35;20.20;99.90
19999;DHT22;10160;50.926;4.374;2023-05-02T14:42:01;20.30;99.90
19999;DHT22;10160;50.926;4.374;2023-05-02T14:44:30;20.70;99.90
19999;DHT22;10160;50.926;4.374;2023-05-02T14:46:56;20.50;99.90
19999;DHT22;10160;50.926;4.374;2023-05-02T14:49:21;20.60;99.90
19999;DHT22;10160;50.926;4.374;2023-05-02T14:51:49;20.60;99.90
19999;DHT22;10160;50.926;4.374;2023-05-02T14:54:18;20.50;99.90
19999;DHT22;10160;50.926;4.374;2023-05-02T14:56:47;20.90;99.90
19999;DHT22;10160;50.926;4.374;2023-05-02T14:59:14;20.80;99.90
19999;DHT22;10160;50.926;4.374;2023-05-02T15:01:40;21.20;99.90
19999;DHT22;10160;50.926;4.374;2023-05-02T15:04:06;21.00;99.90
19999;DHT22;10160;50.926;4.374;2023-05-02T15:06:34;21.20;99.90
19999;DHT22;10160;50.926;4.374;2023-05-02T15:09:00;21.30;99.90
19999;DHT22;10160;50.926;4.374;2023-05-02T15:11:26;21.20;99.90
19999;DHT22;10160;50.926;4.374;2023-05-02T15:13:51;20.90;99.90
19999;DHT22;10160;50.926;4.374;2023-05-02T15:16:17;20.60;99.90
19999;DHT22;10160;50.926;4.374;2023-05-02T15:18:43;20.60;99.90
19999;DHT22;10160;50.926;4.374;2023-05-02T15:21:08;20.20;99.90
19999;DHT22;10160;50.926;4.374;2023-05-02T15:23:34;20.30;99.90
19999;DHT22;10160;50.926;4.374;2023-05-02T15:26:00;20.40;99.90
19999;DHT22;10160;50.926;4.374;2023-05-02T15:28:25;20.00;99.90
19999;DHT22;10160;50.926;4.374;2023-05-02T15:30:51;19.90;99.90
19999;DHT22;10160;50.926;4.374;2023-05-02T15:33:17;19.90;99.90
19999;DHT22;10160;50.926;4.374;2023-05-02T15:35:55;19.90;99.90
19999;DHT22;10160;50.926;4.374;2023-05-02T15:38:21;19.90;99.90
19999;DHT22;10160;50.926;4.374;2023-05-02T15:40:56;19.70;99.90
19999;DHT22;10160;50.926;4.374;2023-05-02T15:43:23;20.00;99.90
19999;DHT22;10160;50.926;4.374;2023-05-02T15:45:53;20.20;99.90
19999;DHT22;10160;50.926;4.374;2023-05-02T15:48:19;20.10;99.90
19999;DHT22;10160;50.926;4.374;2023-05-02T15:50:45;20.00;99.90
19999;DHT22;10160;50.926;4.374;2023-05-02T15:53:15;19.80;99.90
19999;DHT22;10160;50.926;4.374;2023-05-02T15:55:42;19.70;99.90
19999;DHT22;10160;50.926;4.374;2023-05-02T15:58:08;19.40;99.90
19999;DHT22;10160;50.926;4.374;2023-05-02T16:00:34;19.40;99.90
19999;DHT22;10160;50.926;4.374;2023-05-02T16:03:00;19.70;99.90
19999;DHT22;10160;50.926;4.374;2023-05-02T16:05:26;20.00;99.90
19999;DHT22;10160;50.926;4.374;2023-05-02T16:07:52;20.00;99.90
19999;DHT22;10160;50.926;4.374;2023-05-02T16:10:18;20.10;99.90
19999;DHT22;10160;50.926;4.374;2023-05-02T16:12:43;20.10;99.90
19999;DHT22;10160;50.926;4.374;2023-05-02T16:15:09;19.60;99.80
19999;DHT22;10160;50.926;4.374;2023-05-02T16:17:35;19.40;99.90